sensor_id;sensor_type;location;lat;lon;timestamp;P1;durP1;ratioP1;P2;durP2;ratioP2
45792;SDS011;31495;42.740;22.908;2022-12-18T00:00:43;15.38;;;8.40;;
45792;SDS011;31495;42.740;22.908;2022-12-18T00:01:44;12.07;;;7.45;;
45792;SDS011;31495;42.740;22.908;2022-12-18T00:02:44;10.63;;;5.55;;
45792;SDS011;31495;42.740;22.908;2022-12-18T00:03:43;14.38;;;7.70;;
45792;SDS011;31495;42.740;22.908;2022-12-18T00:04:43;14.52;;;6.30;;
45792;SDS011;31495;42.740;22.908;2022-12-18T00:05:49;13.48;;;7.88;;
45792;SDS011;31495;42.740;22.908;2022-12-18T00:06:49;15.02;;;7.30;;
45792;SDS011;31495;42.740;22.908;2022-12-18T00:07:49;12.65;;;6.22;;
45792;SDS011;31495;42.740;22.908;2022-12-18T00:08:49;13.10;;;6.68;;
45792;SDS011;31495;42.740;22.908;2022-12-18T00:09:48;11.93;;;6.97;;
45792;SDS011;31495;42.740;22.908;2022-12-18T00:10:48;9.50;;;5.75;;
45792;SDS011;31495;42.740;22.908;2022-12-18T00:11:47;16.25;;;6.70;;
45792;SDS011;31495;42.740;22.908;2022-12-18T00:12:47;11.07;;;5.43;;
45792;SDS011;31495;42.740;22.908;2022-12-18T00:13:46;12.48;;;6.38;;
45792;SDS011;31495;42.740;22.908;2022-12-18T00:14:47;10.68;;;5.95;;
45792;SDS011;31495;42.740;22.908;2022-12-18T00:15:46;16.52;;;6.40;;
45792;SDS011;31495;42.740;22.908;2022-12-18T00:16:46;10.30;;;5.70;;
45792;SDS011;31495;42.740;22.908;2022-12-18T00:17:46;11.02;;;6.07;;
45792;SDS011;31495;42.740;22.908;2022-12-18T00:18:45;10.30;;;6.30;;
45792;SDS011;31495;42.740;22.908;2022-12-18T00:19:46;9.70;;;5.32;;
45792;SDS011;31495;42.740;22.908;2022-12-18T00:20:45;11.75;;;6.03;;
45792;SDS011;31495;42.740;22.908;2022-12-18T00:21:45;12.10;;;5.57;;
45792;SDS011;31495;42.740;22.908;2022-12-18T00:22:44;9.52;;;4.82;;
45792;SDS011;31495;42.740;22.908;2022-12-18T00:23:44;10.90;;;5.63;;
45792;SDS011;31495;42.740;22.908;2022-12-18T00:24:44;9.52;;;5.03;;
45792;SDS011;31495;42.740;22.908;2022-12-18T00:25:43;11.13;;;6.10;;
45792;SDS011;31495;42.740;22.908;2022-12-18T00:26:43;13.02;;;6.32;;
45792;SDS011;31495;42.740;22.908;2022-12-18T00:27:42;11.45;;;6.07;;
45792;SDS011;31495;42.740;22.908;2022-12-18T00:28:42;9.60;;;5.88;;
45792;SDS011;31495;42.740;22.908;2022-12-18T00:29:42;12.80;;;6.07;;
45792;SDS011;31495;42.740;22.908;2022-12-18T00:30:42;9.20;;;5.85;;
45792;SDS011;31495;42.740;22.908;2022-12-18T00:31:41;9.15;;;5.22;;
45792;SDS011;31495;42.740;22.908;2022-12-18T00:32:41;9.10;;;4.90;;
45792;SDS011;31495;42.740;22.908;2022-12-18T00:33:40;9.15;;;5.15;;
45792;SDS011;31495;42.740;22.908;2022-12-18T00:34:40;10.77;;;5.95;;
45792;SDS011;31495;42.740;22.908;2022-12-18T00:35:39;11.65;;;5.63;;
45792;SDS011;31495;42.740;22.908;2022-12-18T00:36:39;9.65;;;5.57;;
45792;SDS011;31495;42.740;22.908;2022-12-18T00:37:39;9.80;;;4.95;;
45792;SDS011;31495;42.740;22.908;2022-12-18T00:38:38;8.40;;;5.10;;
45792;SDS011;31495;42.740;22.908;2022-12-18T00:39:38;10.25;;;5.50;;
45792;SDS011;31495;42.740;22.908;2022-12-18T00:40:37;11.30;;;6.05;;
45792;SDS011;31495;42.740;22.908;2022-12-18T00:41:37;11.35;;;5.18;;
45792;SDS011;31495;42.740;22.908;2022-12-18T00:42:55;11.95;;;5.88;;
45792;SDS011;31495;42.740;22.908;2022-12-18T00:43:55;8.15;;;4.47;;
45792;SDS011;31495;42.740;22.908;2022-12-18T00:44:54;8.02;;;4.85;;
45792;SDS011;31495;42.740;22.908;2022-12-18T00:45:53;9.23;;;5.47;;
45792;SDS011;31495;42.740;22.908;2022-12-18T00:46:53;10.32;;;5.55;;
45792;SDS011;31495;42.740;22.908;2022-12-18T00:47:53;11.35;;;5.22;;
45792;SDS011;31495;42.740;22.908;2022-12-18T00:48:52;9.93;;;5.32;;
45792;SDS011;31495;42.740;22.908;2022-12-18T00:49:52;11.85;;;6.30;;
45792;SDS011;31495;42.740;22.908;2022-12-18T00:50:51;9.10;;;5.22;;
45792;SDS011;31495;42.740;22.908;2022-12-18T00:51:51;10.38;;;4.68;;
45792;SDS011;31495;42.740;22.908;2022-12-18T00:52:51;7.30;;;4.40;;
45792;SDS011;31495;42.740;22.908;2022-12-18T00:53:51;8.20;;;4.18;;
45792;SDS011;31495;42.740;22.908;2022-12-18T00:54:51;8.15;;;4.90;;
45792;SDS011;31495;42.740;22.908;2022-12-18T00:55:51;7.80;;;4.53;;
45792;SDS011;31495;42.740;22.908;2022-12-18T00:56:50;8.93;;;4.45;;
45792;SDS011;31495;42.740;22.908;2022-12-18T00:57:50;8.32;;;4.13;;
45792;SDS011;31495;42.740;22.908;2022-12-18T00:58:51;8.85;;;4.68;;
45792;SDS011;31495;42.740;22.908;2022-12-18T00:59:51;9.35;;;4.97;;
45792;SDS011;31495;42.740;22.908;2022-12-18T01:00:50;9.35;;;4.32;;
45792;SDS011;31495;42.740;22.908;2022-12-18T01:01:49;8.80;;;4.75;;
45792;SDS011;31495;42.740;22.908;2022-12-18T01:02:49;9.93;;;5.18;;
45792;SDS011;31495;42.740;22.908;2022-12-18T01:03:48;8.88;;;5.18;;
45792;SDS011;31495;42.740;22.908;2022-12-18T01:04:48;10.32;;;5.22;;
45792;SDS011;31495;42.740;22.908;2022-12-18T01:05:47;12.52;;;5.90;;
45792;SDS011;31495;42.740;22.908;2022-12-18T01:06:47;8.10;;;4.88;;
45792;SDS011;31495;42.740;22.908;2022-12-18T01:07:46;11.50;;;5.32;;
45792;SDS011;31495;42.740;22.908;2022-12-18T01:08:45;11.27;;;6.20;;
45792;SDS011;31495;42.740;22.908;2022-12-18T01:09:45;11.27;;;5.93;;
45792;SDS011;31495;42.740;22.908;2022-12-18T01:10:44;8.65;;;5.18;;
45792;SDS011;31495;42.740;22.908;2022-12-18T01:11:44;7.43;;;3.78;;
45792;SDS011;31495;42.740;22.908;2022-12-18T01:12:43;9.50;;;5.68;;
45792;SDS011;31495;42.740;22.908;2022-12-18T01:13:42;8.95;;;5.30;;
45792;SDS011;31495;42.740;22.908;2022-12-18T01:14:42;9.00;;;4.25;;
45792;SDS011;31495;42.740;22.908;2022-12-18T01:15:51;8.90;;;5.28;;
45792;SDS011;31495;42.740;22.908;2022-12-18T01:16:51;9.45;;;5.50;;
45792;SDS011;31495;42.740;22.908;2022-12-18T01:17:51;8.32;;;4.35;;
45792;SDS011;31495;42.740;22.908;2022-12-18T01:19:53;10.05;;;4.80;;
45792;SDS011;31495;42.740;22.908;2022-12-18T01:20:52;8.23;;;4.53;;
45792;SDS011;31495;42.740;22.908;2022-12-18T01:21:51;11.23;;;5.25;;
45792;SDS011;31495;42.740;22.908;2022-12-18T01:22:51;8.57;;;4.20;;
45792;SDS011;31495;42.740;22.908;2022-12-18T01:23:51;8.32;;;5.18;;
45792;SDS011;31495;42.740;22.908;2022-12-18T01:24:54;8.40;;;4.90;;
45792;SDS011;31495;42.740;22.908;2022-12-18T01:25:54;9.60;;;4.50;;
45792;SDS011;31495;42.740;22.908;2022-12-18T01:26:53;12.93;;;6.57;;
45792;SDS011;31495;42.740;22.908;2022-12-18T01:27:52;9.43;;;5.20;;
45792;SDS011;31495;42.740;22.908;2022-12-18T01:28:53;9.77;;;5.43;;
45792;SDS011;31495;42.740;22.908;2022-12-18T01:29:54;12.05;;;7.22;;
45792;SDS011;31495;42.740;22.908;2022-12-18T01:30:53;10.95;;;5.72;;
45792;SDS011;31495;42.740;22.908;2022-12-18T01:31:54;10.10;;;6.25;;
45792;SDS011;31495;42.740;22.908;2022-12-18T01:32:55;12.48;;;6.53;;
45792;SDS011;31495;42.740;22.908;2022-12-18T01:33:55;12.90;;;7.35;;
45792;SDS011;31495;42.740;22.908;2022-12-18T01:34:54;15.93;;;6.72;;
45792;SDS011;31495;42.740;22.908;2022-12-18T01:35:54;10.35;;;5.80;;
45792;SDS011;31495;42.740;22.908;2022-12-18T01:36:53;13.13;;;6.80;;
45792;SDS011;31495;42.740;22.908;2022-12-18T01:37:55;13.35;;;7.97;;
45792;SDS011;31495;42.740;22.908;2022-12-18T01:38:55;11.15;;;6.68;;
45792;SDS011;31495;42.740;22.908;2022-12-18T01:39:55;10.43;;;6.28;;
45792;SDS011;31495;42.740;22.908;2022-12-18T01:40:58;12.70;;;7.40;;
45792;SDS011;31495;42.740;22.908;2022-12-18T01:42:05;14.43;;;6.85;;
45792;SDS011;31495;42.740;22.908;2022-12-18T01:45:47;9.70;;;5.43;;
45792;SDS011;31495;42.740;22.908;2022-12-18T01:46:46;12.57;;;6.70;;
45792;SDS011;31495;42.740;22.908;2022-12-18T01:48:57;11.98;;;6.35;;
45792;SDS011;31495;42.740;22.908;2022-12-18T01:50:45;7.03;;;3.83;;
45792;SDS011;31495;42.740;22.908;2022-12-18T01:51:24;10.23;;;5.50;;
45792;SDS011;31495;42.740;22.908;2022-12-18T01:52:28;10.02;;;5.80;;
45792;SDS011;31495;42.740;22.908;2022-12-18T01:53:31;12.02;;;5.50;;
45792;SDS011;31495;42.740;22.908;2022-12-18T01:54:30;11.40;;;6.28;;
45792;SDS011;31495;42.740;22.908;2022-12-18T01:55:31;12.18;;;6.07;;
45792;SDS011;31495;42.740;22.908;2022-12-18T01:56:36;13.48;;;6.80;;
45792;SDS011;31495;42.740;22.908;2022-12-18T01:57:36;12.68;;;7.22;;
45792;SDS011;31495;42.740;22.908;2022-12-18T01:58:39;17.27;;;7.07;;
45792;SDS011;31495;42.740;22.908;2022-12-18T01:59:47;11.45;;;6.35;;
45792;SDS011;31495;42.740;22.908;2022-12-18T02:00:51;15.60;;;7.55;;
45792;SDS011;31495;42.740;22.908;2022-12-18T02:01:50;10.82;;;6.43;;
45792;SDS011;31495;42.740;22.908;2022-12-18T02:02:50;16.95;;;8.00;;
45792;SDS011;31495;42.740;22.908;2022-12-18T02:03:50;15.60;;;8.90;;
45792;SDS011;31495;42.740;22.908;2022-12-18T02:04:50;14.10;;;7.18;;
45792;SDS011;31495;42.740;22.908;2022-12-18T02:08:23;17.38;;;6.25;;
45792;SDS011;31495;42.740;22.908;2022-12-18T02:09:35;12.70;;;6.65;;
45792;SDS011;31495;42.740;22.908;2022-12-18T02:12:06;11.18;;;7.13;;
45792;SDS011;31495;42.740;22.908;2022-12-18T02:15:39;10.07;;;6.13;;
45792;SDS011;31495;42.740;22.908;2022-12-18T02:16:50;11.55;;;5.22;;
45792;SDS011;31495;42.740;22.908;2022-12-18T02:17:57;12.15;;;6.10;;
45792;SDS011;31495;42.740;22.908;2022-12-18T02:19:06;12.07;;;6.10;;
45792;SDS011;31495;42.740;22.908;2022-12-18T02:21:36;10.30;;;5.60;;
45792;SDS011;31495;42.740;22.908;2022-12-18T02:24:19;11.18;;;5.07;;
45792;SDS011;31495;42.740;22.908;2022-12-18T02:27:15;8.98;;;3.50;;
45792;SDS011;31495;42.740;22.908;2022-12-18T02:28:15;8.93;;;4.22;;
45792;SDS011;31495;42.740;22.908;2022-12-18T02:29:21;8.48;;;4.65;;
45792;SDS011;31495;42.740;22.908;2022-12-18T02:30:26;10.52;;;4.93;;
45792;SDS011;31495;42.740;22.908;2022-12-18T02:31:33;9.88;;;4.18;;
45792;SDS011;31495;42.740;22.908;2022-12-18T02:32:39;6.72;;;4.30;;
45792;SDS011;31495;42.740;22.908;2022-12-18T02:33:43;8.00;;;3.90;;
45792;SDS011;31495;42.740;22.908;2022-12-18T02:34:44;6.82;;;3.72;;
45792;SDS011;31495;42.740;22.908;2022-12-18T02:35:46;17.35;;;4.13;;
45792;SDS011;31495;42.740;22.908;2022-12-18T02:36:47;5.32;;;3.25;;
45792;SDS011;31495;42.740;22.908;2022-12-18T02:37:49;8.27;;;3.47;;
45792;SDS011;31495;42.740;22.908;2022-12-18T02:38:50;7.97;;;4.05;;
45792;SDS011;31495;42.740;22.908;2022-12-18T02:39:52;8.68;;;5.10;;
45792;SDS011;31495;42.740;22.908;2022-12-18T02:40:54;10.60;;;4.57;;
45792;SDS011;31495;42.740;22.908;2022-12-18T02:41:54;7.47;;;2.90;;
45792;SDS011;31495;42.740;22.908;2022-12-18T02:42:53;5.50;;;3.20;;
45792;SDS011;31495;42.740;22.908;2022-12-18T02:43:55;8.43;;;3.75;;
45792;SDS011;31495;42.740;22.908;2022-12-18T02:44:56;4.80;;;2.47;;
45792;SDS011;31495;42.740;22.908;2022-12-18T02:45:57;6.13;;;3.42;;
45792;SDS011;31495;42.740;22.908;2022-12-18T02:46:58;5.25;;;2.40;;
45792;SDS011;31495;42.740;22.908;2022-12-18T02:47:58;6.35;;;3.13;;
45792;SDS011;31495;42.740;22.908;2022-12-18T02:49:01;6.10;;;3.17;;
45792;SDS011;31495;42.740;22.908;2022-12-18T02:56:44;7.95;;;4.22;;
45792;SDS011;31495;42.740;22.908;2022-12-18T02:59:11;8.60;;;4.75;;
45792;SDS011;31495;42.740;22.908;2022-12-18T03:00:16;10.23;;;4.68;;
45792;SDS011;31495;42.740;22.908;2022-12-18T03:02:45;9.02;;;5.30;;
45792;SDS011;31495;42.740;22.908;2022-12-18T03:03:51;7.45;;;4.57;;
45792;SDS011;31495;42.740;22.908;2022-12-18T03:06:33;7.93;;;3.83;;
45792;SDS011;31495;42.740;22.908;2022-12-18T03:07:40;5.65;;;3.35;;
45792;SDS011;31495;42.740;22.908;2022-12-18T03:08:46;4.57;;;2.50;;
45792;SDS011;31495;42.740;22.908;2022-12-18T03:09:51;7.25;;;3.67;;
45792;SDS011;31495;42.740;22.908;2022-12-18T03:10:55;6.80;;;3.67;;
45792;SDS011;31495;42.740;22.908;2022-12-18T03:12:05;8.80;;;4.38;;
45792;SDS011;31495;42.740;22.908;2022-12-18T03:13:23;7.20;;;3.80;;
45792;SDS011;31495;42.740;22.908;2022-12-18T03:14:27;7.30;;;3.28;;
45792;SDS011;31495;42.740;22.908;2022-12-18T03:15:31;6.32;;;3.30;;
45792;SDS011;31495;42.740;22.908;2022-12-18T03:16:36;6.97;;;3.63;;
45792;SDS011;31495;42.740;22.908;2022-12-18T03:17:36;5.88;;;3.65;;
45792;SDS011;31495;42.740;22.908;2022-12-18T03:18:47;7.53;;;3.38;;
45792;SDS011;31495;42.740;22.908;2022-12-18T03:19:59;6.60;;;3.33;;
45792;SDS011;31495;42.740;22.908;2022-12-18T03:21:06;5.72;;;2.97;;
45792;SDS011;31495;42.740;22.908;2022-12-18T03:22:07;5.57;;;3.03;;
45792;SDS011;31495;42.740;22.908;2022-12-18T03:23:09;8.45;;;3.65;;
45792;SDS011;31495;42.740;22.908;2022-12-18T03:24:10;5.90;;;3.55;;
45792;SDS011;31495;42.740;22.908;2022-12-18T03:25:10;7.30;;;4.35;;
45792;SDS011;31495;42.740;22.908;2022-12-18T03:26:14;8.85;;;3.88;;
45792;SDS011;31495;42.740;22.908;2022-12-18T03:27:17;9.32;;;4.25;;
45792;SDS011;31495;42.740;22.908;2022-12-18T03:28:21;9.77;;;4.25;;
45792;SDS011;31495;42.740;22.908;2022-12-18T03:29:25;10.27;;;5.22;;
45792;SDS011;31495;42.740;22.908;2022-12-18T03:30:32;10.90;;;5.43;;
45792;SDS011;31495;42.740;22.908;2022-12-18T03:31:37;8.82;;;4.68;;
45792;SDS011;31495;42.740;22.908;2022-12-18T03:33:41;7.75;;;4.25;;
45792;SDS011;31495;42.740;22.908;2022-12-18T03:34:46;8.55;;;5.22;;
45792;SDS011;31495;42.740;22.908;2022-12-18T03:35:49;10.32;;;5.57;;
45792;SDS011;31495;42.740;22.908;2022-12-18T03:36:49;11.73;;;5.97;;
45792;SDS011;31495;42.740;22.908;2022-12-18T03:37:49;10.40;;;4.70;;
45792;SDS011;31495;42.740;22.908;2022-12-18T03:38:49;12.10;;;6.32;;
45792;SDS011;31495;42.740;22.908;2022-12-18T03:39:48;13.85;;;6.47;;
45792;SDS011;31495;42.740;22.908;2022-12-18T03:45:48;14.98;;;6.65;;
45792;SDS011;31495;42.740;22.908;2022-12-18T03:48:19;12.80;;;6.85;;
45792;SDS011;31495;42.740;22.908;2022-12-18T03:51:01;13.82;;;6.93;;
45792;SDS011;31495;42.740;22.908;2022-12-18T03:52:12;12.52;;;6.18;;
45792;SDS011;31495;42.740;22.908;2022-12-18T03:54:31;17.27;;;7.68;;
45792;SDS011;31495;42.740;22.908;2022-12-18T03:55:33;12.10;;;6.95;;
45792;SDS011;31495;42.740;22.908;2022-12-18T03:56:39;13.52;;;7.30;;
45792;SDS011;31495;42.740;22.908;2022-12-18T03:57:43;14.45;;;7.75;;
45792;SDS011;31495;42.740;22.908;2022-12-18T03:58:43;12.85;;;6.57;;
45792;SDS011;31495;42.740;22.908;2022-12-18T03:59:45;10.77;;;5.85;;
45792;SDS011;31495;42.740;22.908;2022-12-18T04:00:49;11.35;;;5.95;;
45792;SDS011;31495;42.740;22.908;2022-12-18T04:01:53;12.75;;;5.88;;
45792;SDS011;31495;42.740;22.908;2022-12-18T04:02:56;11.93;;;6.57;;
45792;SDS011;31495;42.740;22.908;2022-12-18T04:04:00;12.38;;;6.63;;
45792;SDS011;31495;42.740;22.908;2022-12-18T04:05:03;13.13;;;7.72;;
45792;SDS011;31495;42.740;22.908;2022-12-18T04:06:05;15.40;;;7.85;;
45792;SDS011;31495;42.740;22.908;2022-12-18T04:07:05;11.43;;;6.90;;
45792;SDS011;31495;42.740;22.908;2022-12-18T04:08:06;15.13;;;7.78;;
45792;SDS011;31495;42.740;22.908;2022-12-18T04:09:06;12.15;;;6.55;;
45792;SDS011;31495;42.740;22.908;2022-12-18T04:10:06;12.50;;;7.25;;
45792;SDS011;31495;42.740;22.908;2022-12-18T04:11:08;11.50;;;6.32;;
45792;SDS011;31495;42.740;22.908;2022-12-18T04:12:08;9.77;;;5.93;;
45792;SDS011;31495;42.740;22.908;2022-12-18T04:13:08;12.30;;;5.80;;
45792;SDS011;31495;42.740;22.908;2022-12-18T04:14:08;8.52;;;5.22;;
45792;SDS011;31495;42.740;22.908;2022-12-18T04:15:08;10.25;;;5.15;;
45792;SDS011;31495;42.740;22.908;2022-12-18T04:16:08;9.07;;;5.13;;
45792;SDS011;31495;42.740;22.908;2022-12-18T04:17:08;8.25;;;3.88;;
45792;SDS011;31495;42.740;22.908;2022-12-18T04:18:07;8.02;;;3.95;;
45792;SDS011;31495;42.740;22.908;2022-12-18T04:19:07;7.95;;;3.83;;
45792;SDS011;31495;42.740;22.908;2022-12-18T04:20:06;9.18;;;5.13;;
45792;SDS011;31495;42.740;22.908;2022-12-18T04:21:06;8.10;;;4.35;;
45792;SDS011;31495;42.740;22.908;2022-12-18T04:22:06;10.55;;;4.47;;
45792;SDS011;31495;42.740;22.908;2022-12-18T04:23:05;8.25;;;3.72;;
45792;SDS011;31495;42.740;22.908;2022-12-18T04:24:05;9.02;;;4.65;;
45792;SDS011;31495;42.740;22.908;2022-12-18T04:25:04;9.55;;;5.07;;
45792;SDS011;31495;42.740;22.908;2022-12-18T04:26:04;7.22;;;4.93;;
45792;SDS011;31495;42.740;22.908;2022-12-18T04:27:04;12.45;;;6.07;;
45792;SDS011;31495;42.740;22.908;2022-12-18T04:28:04;12.65;;;5.65;;
45792;SDS011;31495;42.740;22.908;2022-12-18T04:29:03;16.45;;;7.88;;
45792;SDS011;31495;42.740;22.908;2022-12-18T04:30:03;16.33;;;8.30;;
45792;SDS011;31495;42.740;22.908;2022-12-18T04:31:03;16.98;;;7.18;;
45792;SDS011;31495;42.740;22.908;2022-12-18T04:32:03;12.27;;;7.18;;
45792;SDS011;31495;42.740;22.908;2022-12-18T04:33:03;9.80;;;5.75;;
45792;SDS011;31495;42.740;22.908;2022-12-18T04:34:02;12.02;;;6.47;;
45792;SDS011;31495;42.740;22.908;2022-12-18T04:35:02;11.98;;;6.50;;
45792;SDS011;31495;42.740;22.908;2022-12-18T04:36:03;8.90;;;5.43;;
45792;SDS011;31495;42.740;22.908;2022-12-18T04:37:03;12.70;;;5.45;;
45792;SDS011;31495;42.740;22.908;2022-12-18T04:38:03;12.93;;;7.13;;
45792;SDS011;31495;42.740;22.908;2022-12-18T04:39:02;11.68;;;6.50;;
45792;SDS011;31495;42.740;22.908;2022-12-18T04:40:02;16.33;;;6.85;;
45792;SDS011;31495;42.740;22.908;2022-12-18T04:41:02;11.25;;;6.07;;
45792;SDS011;31495;42.740;22.908;2022-12-18T04:42:01;11.43;;;6.55;;
45792;SDS011;31495;42.740;22.908;2022-12-18T04:43:01;10.48;;;6.20;;
45792;SDS011;31495;42.740;22.908;2022-12-18T04:44:01;10.05;;;5.43;;
45792;SDS011;31495;42.740;22.908;2022-12-18T04:45:01;10.25;;;5.25;;
45792;SDS011;31495;42.740;22.908;2022-12-18T04:46:04;13.27;;;6.35;;
45792;SDS011;31495;42.740;22.908;2022-12-18T04:47:05;9.75;;;5.50;;
45792;SDS011;31495;42.740;22.908;2022-12-18T04:48:06;9.02;;;5.35;;
45792;SDS011;31495;42.740;22.908;2022-12-18T04:49:06;11.50;;;6.25;;
45792;SDS011;31495;42.740;22.908;2022-12-18T04:50:05;11.73;;;6.20;;
45792;SDS011;31495;42.740;22.908;2022-12-18T04:51:05;11.15;;;5.97;;
45792;SDS011;31495;42.740;22.908;2022-12-18T04:52:05;12.07;;;5.97;;
45792;SDS011;31495;42.740;22.908;2022-12-18T04:53:04;10.73;;;6.13;;
45792;SDS011;31495;42.740;22.908;2022-12-18T04:54:04;12.32;;;7.03;;
45792;SDS011;31495;42.740;22.908;2022-12-18T04:55:03;10.05;;;6.20;;
45792;SDS011;31495;42.740;22.908;2022-12-18T04:56:05;15.45;;;7.20;;
45792;SDS011;31495;42.740;22.908;2022-12-18T04:57:08;13.18;;;6.85;;
45792;SDS011;31495;42.740;22.908;2022-12-18T04:58:07;16.33;;;7.57;;
45792;SDS011;31495;42.740;22.908;2022-12-18T04:59:07;15.88;;;7.63;;
45792;SDS011;31495;42.740;22.908;2022-12-18T05:00:06;12.82;;;8.18;;
45792;SDS011;31495;42.740;22.908;2022-12-18T05:01:07;16.10;;;7.38;;
45792;SDS011;31495;42.740;22.908;2022-12-18T05:02:07;15.48;;;7.90;;
45792;SDS011;31495;42.740;22.908;2022-12-18T05:03:06;11.75;;;6.22;;
45792;SDS011;31495;42.740;22.908;2022-12-18T05:04:06;9.32;;;6.28;;
45792;SDS011;31495;42.740;22.908;2022-12-18T05:05:06;13.50;;;7.35;;
45792;SDS011;31495;42.740;22.908;2022-12-18T05:06:06;14.57;;;6.75;;
45792;SDS011;31495;42.740;22.908;2022-12-18T05:07:05;13.88;;;6.75;;
45792;SDS011;31495;42.740;22.908;2022-12-18T05:08:05;14.18;;;6.85;;
45792;SDS011;31495;42.740;22.908;2022-12-18T05:09:04;13.95;;;7.50;;
45792;SDS011;31495;42.740;22.908;2022-12-18T05:10:04;14.68;;;7.68;;
45792;SDS011;31495;42.740;22.908;2022-12-18T05:11:05;11.85;;;5.88;;
45792;SDS011;31495;42.740;22.908;2022-12-18T05:12:06;9.82;;;5.30;;
45792;SDS011;31495;42.740;22.908;2022-12-18T05:13:05;12.57;;;6.30;;
45792;SDS011;31495;42.740;22.908;2022-12-18T05:14:05;17.13;;;9.95;;
45792;SDS011;31495;42.740;22.908;2022-12-18T05:15:04;15.60;;;7.68;;
45792;SDS011;31495;42.740;22.908;2022-12-18T05:16:04;14.50;;;7.07;;
45792;SDS011;31495;42.740;22.908;2022-12-18T05:17:05;12.93;;;7.18;;
45792;SDS011;31495;42.740;22.908;2022-12-18T05:18:04;16.40;;;8.20;;
45792;SDS011;31495;42.740;22.908;2022-12-18T05:19:04;18.67;;;9.98;;
45792;SDS011;31495;42.740;22.908;2022-12-18T05:20:03;13.60;;;8.23;;
45792;SDS011;31495;42.740;22.908;2022-12-18T05:21:03;12.85;;;7.07;;
45792;SDS011;31495;42.740;22.908;2022-12-18T05:22:03;14.82;;;7.63;;
45792;SDS011;31495;42.740;22.908;2022-12-18T05:23:02;18.92;;;11.15;;
45792;SDS011;31495;42.740;22.908;2022-12-18T05:24:02;19.73;;;9.85;;
45792;SDS011;31495;42.740;22.908;2022-12-18T05:25:02;17.55;;;9.88;;
45792;SDS011;31495;42.740;22.908;2022-12-18T05:26:02;20.58;;;10.43;;
45792;SDS011;31495;42.740;22.908;2022-12-18T05:28:02;19.27;;;9.00;;
45792;SDS011;31495;42.740;22.908;2022-12-18T05:29:02;18.42;;;9.30;;
45792;SDS011;31495;42.740;22.908;2022-12-18T05:30:02;15.73;;;7.63;;
45792;SDS011;31495;42.740;22.908;2022-12-18T05:31:04;20.45;;;8.80;;
45792;SDS011;31495;42.740;22.908;2022-12-18T05:32:05;16.80;;;8.80;;
45792;SDS011;31495;42.740;22.908;2022-12-18T05:33:04;16.08;;;8.95;;
45792;SDS011;31495;42.740;22.908;2022-12-18T05:34:04;17.42;;;8.85;;
45792;SDS011;31495;42.740;22.908;2022-12-18T05:35:05;15.68;;;8.55;;
45792;SDS011;31495;42.740;22.908;2022-12-18T05:36:06;17.23;;;9.60;;
45792;SDS011;31495;42.740;22.908;2022-12-18T05:37:07;18.55;;;10.32;;
45792;SDS011;31495;42.740;22.908;2022-12-18T05:38:06;19.20;;;9.63;;
45792;SDS011;31495;42.740;22.908;2022-12-18T05:39:06;20.42;;;9.88;;
45792;SDS011;31495;42.740;22.908;2022-12-18T05:40:05;19.00;;;9.90;;
45792;SDS011;31495;42.740;22.908;2022-12-18T05:41:06;17.45;;;9.32;;
45792;SDS011;31495;42.740;22.908;2022-12-18T05:42:07;16.65;;;9.88;;
45792;SDS011;31495;42.740;22.908;2022-12-18T05:43:06;19.33;;;10.23;;
45792;SDS011;31495;42.740;22.908;2022-12-18T05:44:05;17.63;;;9.38;;
45792;SDS011;31495;42.740;22.908;2022-12-18T05:45:05;18.25;;;9.65;;
45792;SDS011;31495;42.740;22.908;2022-12-18T05:46:11;19.80;;;9.32;;
45792;SDS011;31495;42.740;22.908;2022-12-18T05:47:12;19.33;;;10.15;;
45792;SDS011;31495;42.740;22.908;2022-12-18T05:48:11;24.13;;;11.85;;
45792;SDS011;31495;42.740;22.908;2022-12-18T05:49:11;25.20;;;12.20;;
45792;SDS011;31495;42.740;22.908;2022-12-18T05:50:11;23.83;;;10.95;;
45792;SDS011;31495;42.740;22.908;2022-12-18T05:51:11;20.73;;;10.05;;
45792;SDS011;31495;42.740;22.908;2022-12-18T05:52:13;21.55;;;11.43;;
45792;SDS011;31495;42.740;22.908;2022-12-18T05:53:13;25.00;;;12.88;;
45792;SDS011;31495;42.740;22.908;2022-12-18T05:54:14;27.95;;;12.88;;
45792;SDS011;31495;42.740;22.908;2022-12-18T05:55:14;22.25;;;11.48;;
45792;SDS011;31495;42.740;22.908;2022-12-18T05:56:14;24.55;;;11.95;;
45792;SDS011;31495;42.740;22.908;2022-12-18T05:57:15;21.45;;;10.73;;
45792;SDS011;31495;42.740;22.908;2022-12-18T05:58:15;21.02;;;10.32;;
45792;SDS011;31495;42.740;22.908;2022-12-18T05:59:15;22.20;;;11.57;;
45792;SDS011;31495;42.740;22.908;2022-12-18T06:00:14;23.23;;;11.13;;
45792;SDS011;31495;42.740;22.908;2022-12-18T06:01:19;24.85;;;13.70;;
45792;SDS011;31495;42.740;22.908;2022-12-18T06:02:20;30.17;;;15.45;;
45792;SDS011;31495;42.740;22.908;2022-12-18T06:03:19;33.47;;;17.85;;
45792;SDS011;31495;42.740;22.908;2022-12-18T06:04:19;32.60;;;15.90;;
45792;SDS011;31495;42.740;22.908;2022-12-18T06:05:18;37.17;;;18.67;;
45792;SDS011;31495;42.740;22.908;2022-12-18T06:06:19;25.25;;;13.20;;
45792;SDS011;31495;42.740;22.908;2022-12-18T06:07:21;30.70;;;15.63;;
45792;SDS011;31495;42.740;22.908;2022-12-18T06:08:21;33.67;;;15.07;;
45792;SDS011;31495;42.740;22.908;2022-12-18T06:09:20;25.02;;;11.75;;
45792;SDS011;31495;42.740;22.908;2022-12-18T06:10:20;23.05;;;12.50;;
45792;SDS011;31495;42.740;22.908;2022-12-18T06:11:20;23.05;;;11.68;;
45792;SDS011;31495;42.740;22.908;2022-12-18T06:12:24;28.67;;;14.15;;
45792;SDS011;31495;42.740;22.908;2022-12-18T06:13:24;26.45;;;12.55;;
45792;SDS011;31495;42.740;22.908;2022-12-18T06:14:23;23.58;;;11.13;;
45792;SDS011;31495;42.740;22.908;2022-12-18T06:15:22;20.05;;;10.55;;
45792;SDS011;31495;42.740;22.908;2022-12-18T06:16:22;22.48;;;11.85;;
45792;SDS011;31495;42.740;22.908;2022-12-18T06:17:21;22.25;;;11.40;;
45792;SDS011;31495;42.740;22.908;2022-12-18T06:18:21;27.23;;;12.35;;
45792;SDS011;31495;42.740;22.908;2022-12-18T06:19:20;24.48;;;13.43;;
45792;SDS011;31495;42.740;22.908;2022-12-18T06:20:20;23.75;;;11.85;;
45792;SDS011;31495;42.740;22.908;2022-12-18T06:21:19;27.15;;;12.57;;
45792;SDS011;31495;42.740;22.908;2022-12-18T06:22:19;26.52;;;12.10;;
45792;SDS011;31495;42.740;22.908;2022-12-18T06:23:19;30.55;;;11.80;;
45792;SDS011;31495;42.740;22.908;2022-12-18T06:24:18;26.08;;;11.88;;
45792;SDS011;31495;42.740;22.908;2022-12-18T06:25:18;32.00;;;15.13;;
45792;SDS011;31495;42.740;22.908;2022-12-18T06:26:17;25.58;;;11.40;;
45792;SDS011;31495;42.740;22.908;2022-12-18T06:27:16;26.60;;;12.38;;
45792;SDS011;31495;42.740;22.908;2022-12-18T06:28:16;23.27;;;11.82;;
45792;SDS011;31495;42.740;22.908;2022-12-18T06:29:15;26.80;;;12.50;;
45792;SDS011;31495;42.740;22.908;2022-12-18T06:30:15;24.67;;;12.38;;
45792;SDS011;31495;42.740;22.908;2022-12-18T06:31:15;25.23;;;12.25;;
45792;SDS011;31495;42.740;22.908;2022-12-18T06:32:14;21.75;;;11.35;;
45792;SDS011;31495;42.740;22.908;2022-12-18T06:33:14;27.60;;;15.10;;
45792;SDS011;31495;42.740;22.908;2022-12-18T06:34:14;24.35;;;12.35;;
45792;SDS011;31495;42.740;22.908;2022-12-18T06:35:14;26.88;;;14.02;;
45792;SDS011;31495;42.740;22.908;2022-12-18T06:36:13;25.50;;;13.50;;
45792;SDS011;31495;42.740;22.908;2022-12-18T06:37:13;27.85;;;14.18;;